Time;durP1;ratioP1;P1;durP2;ratioP2;P2;SDS_P1;SDS_P2;PMS_P1;PMS_P2;Temp;Humidity;BMP_temperature;BMP_pressure;BME280_temperature;BME280_humidity;BME280_pressure;Samples;Min_cycle;Max_cycle;Signal;HPM_P1;HPM_P2
2023/05/19 00:01:53;;;;;;;1.50;1.10;;;10.70;98.20;;;;;;5049655;28;20484;-78
2023/05/19 00:04:21;;;;;;;1.50;1.00;;;10.70;98.20;;;;;;5050169;28;21022;-79
2023/05/19 00:06:50;;;;;;;1.50;1.00;;;10.60;98.20;;;;;;5047673;28;21123;-80
2023/05/19 00:09:19;;;;;;;1.50;1.20;;;10.60;98.20;;;;;;5050402;28;20462;-79
2023/05/19 00:11:46;;;;;;;1.50;1.10;;;10.60;98.20;;;;;;5049722;28;20461;-79
2023/05/19 00:14:14;;;;;;;1.50;1.20;;;10.50;98.20;;;;;;5048560;28;20458;-79
2023/05/19 00:16:42;;;;;;;1.50;1.10;;;10.50;98.20;;;;;;5056390;28;20458;-78
2023/05/19 00:19:09;;;;;;;1.50;1.10;;;10.50;98.20;;;;;;5049585;28;20827;-78
2023/05/19 00:21:37;;;;;;;1.50;1.10;;;10.40;98.20;;;;;;5051888;28;21091;-79
2023/05/19 00:24:05;;;;;;;1.50;1.10;;;10.40;98.20;;;;;;5051752;28;20599;-79
2023/05/19 00:26:33;;;;;;;1.50;1.10;;;10.40;98.20;;;;;;5053334;28;20466;-79
2023/05/19 00:29:00;;;;;;;1.47;1.10;;;10.30;98.20;;;;;;5047672;28;21178;-79
2023/05/19 00:31:26;;;;;;;1.47;1.10;;;10.40;98.20;;;;;;5051677;28;21093;-79
2023/05/19 00:33:53;;;;;;;1.50;1.17;;;10.30;98.20;;;;;;5052367;28;20464;-79
2023/05/19 00:36:20;;;;;;;1.43;1.10;;;10.30;98.20;;;;;;5052453;28;20454;-79
2023/05/19 00:38:47;;;;;;;1.50;1.13;;;10.30;98.20;;;;;;5052952;28;20492;-78
2023/05/19 00:41:14;;;;;;;1.50;1.20;;;10.30;98.20;;;;;;5052723;28;20459;-79
2023/05/19 00:43:42;;;;;;;1.50;1.20;;;10.20;98.20;;;;;;5050393;28;20489;-80
2023/05/19 00:46:10;;;;;;;1.50;1.10;;;10.20;98.20;;;;;;5051840;28;20514;-80
2023/05/19 00:48:37;;;;;;;1.50;1.10;;;10.20;98.20;;;;;;5053078;28;20548;-80
2023/05/19 00:51:05;;;;;;;1.43;1.10;;;10.10;98.20;;;;;;5049096;28;20458;-79
2023/05/19 00:53:33;;;;;;;1.47;1.10;;;10.10;98.20;;;;;;5052394;28;20468;-79
2023/05/19 00:56:01;;;;;;;1.50;1.10;;;10.10;98.20;;;;;;5052940;28;20489;-79
2023/05/19 00:58:29;;;;;;;1.43;1.10;;;10.10;98.20;;;;;;5047741;28;20852;-79
2023/05/19 01:01:01;;;;;;;1.50;1.20;;;10.00;98.20;;;;;;5050751;28;20844;-79
2023/05/19 01:03:29;;;;;;;1.47;1.10;;;10.00;98.20;;;;;;5047694;28;20569;-79
2023/05/19 01:05:56;;;;;;;1.50;1.10;;;10.00;98.20;;;;;;5051826;28;20538;-79
2023/05/19 01:08:24;;;;;;;1.50;1.10;;;10.00;98.20;;;;;;5052476;28;20475;-79
2023/05/19 01:10:50;;;;;;;1.40;1.10;;;9.90;98.20;;;;;;5047079;28;20467;-79
2023/05/19 01:13:17;;;;;;;1.43;1.10;;;9.90;98.20;;;;;;5051395;28;21088;-79
2023/05/19 01:16:01;;;;;;;1.50;1.10;;;9.90;98.20;;;;;;5050499;28;20727;-79
2023/05/19 01:18:38;;;;;;;1.50;1.10;;;9.90;98.20;;;;;;5049354;28;20566;-79
2023/05/19 01:21:35;;;;;;;1.50;1.10;;;9.80;98.20;;;;;;5049699;28;20899;-79
2023/05/19 01:24:13;;;;;;;1.50;1.20;;;9.80;98.20;;;;;;5034175;28;20573;-79
2023/05/19 01:27:00;;;;;;;1.40;1.10;;;9.80;98.20;;;;;;5052517;28;20469;-79
2023/05/19 01:29:40;;;;;;;1.50;1.20;;;9.80;98.20;;;;;;5048390;28;20450;-78
2023/05/19 01:32:10;;;;;;;1.43;1.10;;;9.70;98.20;;;;;;5047372;28;20515;-80
2023/05/19 01:34:42;;;;;;;1.50;1.20;;;9.70;98.20;;;;;;5044695;28;20530;-79
2023/05/19 01:37:22;;;;;;;1.50;1.10;;;9.70;98.20;;;;;;5051708;28;20509;-79
2023/05/19 01:39:51;;;;;;;1.50;1.10;;;9.60;98.20;;;;;;5049795;28;20466;-80
2023/05/19 01:42:19;;;;;;;1.50;1.10;;;9.60;98.20;;;;;;5051416;28;20458;-79
2023/05/19 01:44:47;;;;;;;1.43;1.10;;;9.60;98.20;;;;;;5048240;28;20486;-79
2023/05/19 01:47:16;;;;;;;1.47;1.10;;;9.60;98.20;;;;;;5045842;28;20504;-79
2023/05/19 01:49:42;;;;;;;1.50;1.10;;;9.60;98.20;;;;;;5050974;28;20469;-80
2023/05/19 01:52:09;;;;;;;1.50;1.10;;;9.50;98.20;;;;;;5049671;28;20542;-79
2023/05/19 01:54:36;;;;;;;1.47;1.10;;;9.50;98.20;;;;;;5047506;28;20936;-80
2023/05/19 01:57:15;;;;;;;1.50;1.20;;;9.50;98.20;;;;;;5051705;28;20482;-79
2023/05/19 01:59:52;;;;;;;1.50;1.20;;;9.40;98.20;;;;;;5050061;28;20469;-80
2023/05/19 02:02:29;;;;;;;1.50;1.20;;;9.40;98.20;;;;;;5047463;28;20458;-79
2023/05/19 02:05:00;;;;;;;1.50;1.10;;;9.40;98.20;;;;;;5050016;28;20573;-80
2023/05/19 02:07:35;;;;;;;1.50;1.10;;;9.40;98.20;;;;;;5050932;28;20482;-79
2023/05/19 02:10:06;;;;;;;1.50;1.10;;;9.30;98.20;;;;;;5049707;28;20910;-79
2023/05/19 02:12:36;;;;;;;1.50;1.20;;;9.30;98.20;;;;;;5049502;28;20545;-79
2023/05/19 02:15:05;;;;;;;1.50;1.20;;;9.30;98.20;;;;;;5049084;28;20504;-79
2023/05/19 02:17:38;;;;;;;1.50;1.20;;;9.30;98.20;;;;;;5051107;28;20482;-79
2023/05/19 02:20:07;;;;;;;1.50;1.20;;;9.30;98.20;;;;;;5046181;28;20458;-80
2023/05/19 02:22:34;;;;;;;1.50;1.17;;;9.20;98.20;;;;;;5051329;28;20844;-80
2023/05/19 02:25:01;;;;;;;1.50;1.30;;;9.30;98.20;;;;;;5051708;28;20866;-79
2023/05/19 02:27:28;;;;;;;1.50;1.10;;;9.20;98.20;;;;;;5050721;28;20474;-79
2023/05/19 02:29:56;;;;;;;1.50;1.20;;;9.20;98.20;;;;;;5049937;28;20458;-80
2023/05/19 02:32:23;;;;;;;1.50;1.20;;;9.20;98.20;;;;;;5050601;28;20516;-79
2023/05/19 02:34:52;;;;;;;1.50;1.20;;;9.20;98.20;;;;;;5051298;28;20478;-79
2023/05/19 02:37:22;;;;;;;1.50;1.20;;;9.20;98.20;;;;;;5048596;28;20489;-80
2023/05/19 02:39:49;;;;;;;1.47;1.10;;;9.10;98.20;;;;;;5046126;28;20954;-79
2023/05/19 02:42:17;;;;;;;1.50;1.20;;;9.10;98.20;;;;;;5050811;28;20466;-78
2023/05/19 02:44:44;;;;;;;1.50;1.20;;;9.10;98.20;;;;;;5055273;28;20482;-78
2023/05/19 02:47:11;;;;;;;1.50;1.20;;;9.10;98.20;;;;;;5051947;28;20482;-79
2023/05/19 02:49:37;;;;;;;1.50;1.20;;;9.10;98.20;;;;;;5050340;28;20548;-79
2023/05/19 02:52:06;;;;;;;1.50;1.13;;;9.00;98.20;;;;;;5048708;28;20465;-78
2023/05/19 02:54:34;;;;;;;1.50;1.20;;;9.00;98.20;;;;;;5049879;28;20462;-79
2023/05/19 02:57:01;;;;;;;1.50;1.20;;;9.00;98.20;;;;;;5050252;28;20462;-78
2023/05/19 02:59:27;;;;;;;1.50;1.20;;;9.00;98.20;;;;;;5050632;28;20462;-79
2023/05/19 03:01:56;;;;;;;1.50;1.10;;;9.00;98.20;;;;;;5051220;28;20461;-79
2023/05/19 03:04:23;;;;;;;1.47;1.20;;;8.90;98.20;;;;;;5050852;28;20482;-79
2023/05/19 03:06:50;;;;;;;1.50;1.20;;;8.90;98.20;;;;;;5051225;28;20894;-80
2023/05/19 03:09:18;;;;;;;1.50;1.20;;;8.90;98.20;;;;;;5051694;28;20468;-80
2023/05/19 03:11:45;;;;;;;1.50;1.17;;;8.80;98.20;;;;;;5050621;28;20833;-79
2023/05/19 03:14:12;;;;;;;1.50;1.20;;;8.80;98.20;;;;;;5050421;28;20457;-79
2023/05/19 03:16:40;;;;;;;1.50;1.10;;;8.80;98.20;;;;;;5048683;28;20481;-80
2023/05/19 03:19:08;;;;;;;1.50;1.30;;;8.80;98.20;;;;;;5050743;28;20488;-79
2023/05/19 03:21:35;;;;;;;1.50;1.20;;;8.80;98.20;;;;;;5048210;28;20462;-79
2023/05/19 03:24:02;;;;;;;1.50;1.20;;;8.80;98.20;;;;;;5047289;28;21016;-80
2023/05/19 03:26:31;;;;;;;1.50;1.20;;;8.80;98.20;;;;;;5050855;28;20533;-79
2023/05/19 03:28:58;;;;;;;1.50;1.20;;;8.70;98.20;;;;;;5050743;28;20488;-79
2023/05/19 03:31:25;;;;;;;1.50;1.20;;;8.70;98.20;;;;;;5051592;28;20454;-79
2023/05/19 03:33:52;;;;;;;1.50;1.20;;;8.70;98.20;;;;;;5047700;28;21047;-79
2023/05/19 03:36:20;;;;;;;1.50;1.20;;;8.70;98.20;;;;;;5050067;28;20483;-79
2023/05/19 03:38:47;;;;;;;1.50;1.20;;;8.70;98.20;;;;;;5046347;28;20491;-78
2023/05/19 03:41:14;;;;;;;1.50;1.20;;;8.70;98.20;;;;;;5051998;28;20454;-79
2023/05/19 03:43:42;;;;;;;1.47;1.20;;;8.70;98.20;;;;;;5043818;28;20859;-79
2023/05/19 03:46:09;;;;;;;1.50;1.20;;;8.70;98.20;;;;;;5052359;28;20459;-79
2023/05/19 03:48:35;;;;;;;1.50;1.20;;;8.60;98.20;;;;;;5055543;28;20485;-79
2023/05/19 03:51:03;;;;;;;1.50;1.20;;;8.60;98.20;;;;;;5049383;28;20469;-79
2023/05/19 03:53:30;;;;;;;1.50;1.20;;;8.60;98.20;;;;;;5052701;28;20489;-79
2023/05/19 03:55:58;;;;;;;1.50;1.20;;;8.60;98.20;;;;;;5052828;28;20455;-79
2023/05/19 03:58:25;;;;;;;1.50;1.20;;;8.60;98.20;;;;;;5051884;28;20471;-79
2023/05/19 04:00:53;;;;;;;1.50;1.20;;;8.60;98.20;;;;;;5052309;28;20489;-79
2023/05/19 04:03:20;;;;;;;1.50;1.20;;;8.60;98.20;;;;;;5045993;28;20932;-80
2023/05/19 04:05:47;;;;;;;1.50;1.10;;;8.60;98.20;;;;;;5056683;28;20467;-78
2023/05/19 04:08:13;;;;;;;1.50;1.20;;;8.60;98.20;;;;;;5054616;28;20478;-79
2023/05/19 04:10:40;;;;;;;1.50;1.20;;;8.60;98.20;;;;;;5046252;28;20471;-80
2023/05/19 04:13:07;;;;;;;1.50;1.20;;;8.60;98.20;;;;;;5055008;28;20481;-79
2023/05/19 04:15:34;;;;;;;1.50;1.30;;;8.60;98.20;;;;;;5055868;28;20458;-79
2023/05/19 04:18:02;;;;;;;1.50;1.20;;;8.70;98.20;;;;;;5052724;28;20856;-79
2023/05/19 04:20:29;;;;;;;1.50;1.20;;;8.70;98.20;;;;;;5054629;28;20816;-80
2023/05/19 04:22:56;;;;;;;1.50;1.30;;;8.70;98.20;;;;;;5049974;28;20463;-79
2023/05/19 04:25:24;;;;;;;1.50;1.20;;;8.70;98.20;;;;;;5051207;28;20478;-79
2023/05/19 04:27:51;;;;;;;1.50;1.20;;;8.80;98.20;;;;;;5053571;28;20481;-80
2023/05/19 04:30:21;;;;;;;1.50;1.20;;;8.80;98.20;;;;;;5052684;28;20553;-79
2023/05/19 04:32:48;;;;;;;1.50;1.20;;;8.80;98.20;;;;;;5052842;28;20545;-79
2023/05/19 04:35:16;;;;;;;1.50;1.33;;;8.90;98.20;;;;;;5053729;28;20671;-79
2023/05/19 04:37:44;;;;;;;1.50;1.20;;;8.90;98.20;;;;;;5051921;28;20902;-80
2023/05/19 04:40:12;;;;;;;1.50;1.20;;;8.90;98.20;;;;;;5051443;28;20467;-79
2023/05/19 04:42:41;;;;;;;1.50;1.10;;;9.00;98.20;;;;;;5047894;28;20919;-80
2023/05/19 04:45:11;;;;;;;1.50;1.30;;;9.00;98.20;;;;;;5050304;28;20958;-79
2023/05/19 04:47:37;;;;;;;1.50;1.20;;;9.10;98.20;;;;;;5051056;28;20486;-80
2023/05/19 04:50:06;;;;;;;1.50;1.10;;;9.20;98.20;;;;;;5051500;28;20923;-79
2023/05/19 04:52:34;;;;;;;1.47;1.10;;;9.20;98.20;;;;;;5052039;28;20978;-79
2023/05/19 04:55:00;;;;;;;1.50;1.30;;;9.40;98.20;;;;;;5052183;28;20466;-80
2023/05/19 04:57:27;;;;;;;1.50;1.20;;;9.50;98.20;;;;;;5050302;28;20485;-80
2023/05/19 04:59:58;;;;;;;1.47;1.10;;;9.70;98.20;;;;;;5051646;28;20487;-79
2023/05/19 05:02:26;;;;;;;1.50;1.20;;;10.00;98.20;;;;;;5050308;28;20469;-79
2023/05/19 05:04:53;;;;;;;1.50;1.17;;;10.20;98.20;;;;;;5051893;28;20493;-79
2023/05/19 05:07:20;;;;;;;1.50;1.10;;;10.40;98.20;;;;;;5052450;28;20505;-79
2023/05/19 05:09:48;;;;;;;1.50;1.10;;;10.60;98.20;;;;;;5046984;28;20883;-80
2023/05/19 05:12:17;;;;;;;1.50;1.30;;;10.80;98.20;;;;;;5048250;28;20866;-80
2023/05/19 05:14:44;;;;;;;1.50;1.00;;;11.00;98.20;;;;;;5051615;28;20481;-80
2023/05/19 05:17:12;;;;;;;1.50;1.10;;;11.20;98.20;;;;;;5046775;28;20495;-80
2023/05/19 05:19:39;;;;;;;1.50;1.10;;;11.40;98.20;;;;;;5040536;28;20474;-79
2023/05/19 05:22:07;;;;;;;1.50;1.10;;;11.70;98.20;;;;;;5052998;28;20473;-79
2023/05/19 05:24:34;;;;;;;1.50;1.00;;;11.90;98.20;;;;;;5046763;28;20490;-79
2023/05/19 05:27:03;;;;;;;1.50;1.10;;;12.10;98.20;;;;;;5045395;28;20971;-79
2023/05/19 05:29:30;;;;;;;1.47;1.10;;;12.30;98.20;;;;;;5046367;28;20454;-79
2023/05/19 05:31:56;;;;;;;1.47;1.00;;;12.60;98.20;;;;;;5045874;28;20454;-79
2023/05/19 05:34:23;;;;;;;1.50;1.10;;;12.70;98.20;;;;;;5055730;28;20456;-79
2023/05/19 05:36:52;;;;;;;1.50;1.03;;;12.80;98.20;;;;;;5054395;28;20943;-81
2023/05/19 05:39:19;;;;;;;1.50;1.10;;;12.80;98.20;;;;;;5053089;28;20465;-77
2023/05/19 05:41:46;;;;;;;1.47;1.00;;;12.90;98.20;;;;;;5052886;28;20461;-79
2023/05/19 05:44:15;;;;;;;1.50;1.10;;;12.90;98.20;;;;;;5053798;28;20478;-79
2023/05/19 05:46:42;;;;;;;1.50;1.03;;;13.00;98.20;;;;;;5054526;28;20477;-78
2023/05/19 05:49:11;;;;;;;1.47;1.07;;;13.10;98.10;;;;;;5059890;28;20477;-79
2023/05/19 05:51:41;;;;;;;1.50;1.10;;;13.20;98.20;;;;;;5055088;28;20463;-77
2023/05/19 05:54:11;;;;;;;1.50;1.10;;;13.40;98.20;;;;;;5050735;28;20464;-78
2023/05/19 05:56:39;;;;;;;1.50;1.00;;;13.60;97.90;;;;;;5057377;28;20457;-77
2023/05/19 05:59:06;;;;;;;1.47;1.00;;;13.80;97.50;;;;;;5057297;28;20890;-79
2023/05/19 06:01:35;;;;;;;1.50;1.00;;;14.00;97.30;;;;;;5050639;28;20496;-78
2023/05/19 06:04:02;;;;;;;1.50;1.10;;;14.10;95.90;;;;;;5053992;28;20462;-79
2023/05/19 06:06:29;;;;;;;1.47;1.00;;;14.30;95.60;;;;;;5049281;28;20983;-79
2023/05/19 06:08:56;;;;;;;1.50;1.10;;;14.50;95.30;;;;;;5046969;28;20485;-78
2023/05/19 06:11:23;;;;;;;1.50;1.00;;;14.80;95.20;;;;;;5046814;28;20703;-81
2023/05/19 06:13:50;;;;;;;1.47;1.00;;;15.00;94.70;;;;;;5051677;28;20467;-79
2023/05/19 06:16:17;;;;;;;1.50;1.00;;;15.30;94.00;;;;;;5050919;28;20458;-80
2023/05/19 06:18:45;;;;;;;1.47;1.00;;;15.50;92.50;;;;;;5045445;28;20482;-79
2023/05/19 06:21:18;;;;;;;1.43;0.90;;;15.70;92.80;;;;;;5045194;28;20479;-79
2023/05/19 06:23:45;;;;;;;1.50;1.00;;;15.90;91.60;;;;;;5047721;28;20554;-79
2023/05/19 06:26:11;;;;;;;1.50;0.90;;;16.10;92.50;;;;;;5056708;28;20482;-80
2023/05/19 06:28:38;;;;;;;1.43;1.00;;;16.20;89.10;;;;;;5056546;28;20481;-79
2023/05/19 06:31:05;;;;;;;1.47;1.00;;;16.20;88.70;;;;;;5053850;28;20826;-78
2023/05/19 06:33:32;;;;;;;1.47;1.00;;;16.20;87.40;;;;;;5050675;28;20457;-79
2023/05/19 06:36:00;;;;;;;1.40;0.90;;;16.30;88.00;;;;;;5045379;28;20459;-80
2023/05/19 06:38:27;;;;;;;1.47;1.00;;;16.50;89.10;;;;;;5045111;28;20492;-79
2023/05/19 06:40:54;;;;;;;1.47;1.00;;;16.60;85.50;;;;;;5046724;28;20625;-78
2023/05/19 06:43:21;;;;;;;1.43;0.90;;;16.50;87.00;;;;;;5047740;28;20956;-79
2023/05/19 06:45:47;;;;;;;1.47;0.90;;;16.70;85.70;;;;;;5048607;28;20485;-79
2023/05/19 06:48:14;;;;;;;1.50;0.90;;;16.70;86.50;;;;;;5053004;28;20479;-81
2023/05/19 06:50:41;;;;;;;1.47;0.97;;;17.00;85.60;;;;;;5058178;28;20456;-79
2023/05/19 06:53:09;;;;;;;1.47;0.97;;;17.20;85.10;;;;;;5053199;28;20470;-81
2023/05/19 06:55:36;;;;;;;1.40;0.90;;;17.40;84.70;;;;;;5057689;28;20465;-79
2023/05/19 06:58:03;;;;;;;1.47;0.90;;;17.50;83.50;;;;;;5055318;28;21003;-79
2023/05/19 07:00:33;;;;;;;1.50;0.90;;;17.60;83.50;;;;;;5044450;28;20520;-79
2023/05/19 07:03:00;;;;;;;1.43;0.90;;;17.50;83.90;;;;;;5052423;28;20949;-78
2023/05/19 07:05:27;;;;;;;1.50;0.90;;;17.60;85.20;;;;;;5044930;28;20492;-80
2023/05/19 07:07:53;;;;;;;1.50;0.90;;;17.80;84.40;;;;;;5045087;28;20489;-79
2023/05/19 07:10:22;;;;;;;1.50;0.90;;;18.10;83.00;;;;;;5044702;28;20459;-80
2023/05/19 07:12:49;;;;;;;1.50;0.90;;;18.20;81.80;;;;;;5041543;28;20465;-80
2023/05/19 07:15:15;;;;;;;1.47;0.90;;;18.40;81.80;;;;;;5051328;28;20552;-80
2023/05/19 07:17:42;;;;;;;1.50;0.90;;;18.50;80.60;;;;;;5048114;28;20857;-81
2023/05/19 07:20:10;;;;;;;1.50;0.90;;;18.70;80.10;;;;;;5033851;28;21164;-80
2023/05/19 07:22:38;;;;;;;1.47;0.90;;;18.70;78.70;;;;;;5044747;28;20473;-80
2023/05/19 07:25:06;;;;;;;1.50;0.90;;;18.70;78.00;;;;;;5044218;28;20782;-79
2023/05/19 07:27:35;;;;;;;1.50;0.90;;;18.80;77.00;;;;;;5048654;28;20504;-81
2023/05/19 07:30:02;;;;;;;1.50;0.90;;;18.90;76.60;;;;;;5044388;28;20923;-79
2023/05/19 07:32:29;;;;;;;1.50;0.90;;;18.80;76.80;;;;;;5040500;28;20561;-80
2023/05/19 07:34:56;;;;;;;1.47;0.90;;;18.90;77.90;;;;;;5053150;28;20473;-80
2023/05/19 07:37:23;;;;;;;1.50;1.10;;;19.10;78.00;;;;;;5047131;28;21069;-79
2023/05/19 07:39:49;;;;;;;1.50;0.90;;;19.30;76.00;;;;;;5038602;28;20463;-79
2023/05/19 07:42:16;;;;;;;1.50;0.90;;;19.30;75.90;;;;;;5047420;28;21025;-79
2023/05/19 07:44:45;;;;;;;1.47;0.90;;;19.40;74.40;;;;;;5042602;28;20469;-82
2023/05/19 07:47:12;;;;;;;1.50;0.90;;;19.60;76.00;;;;;;5041988;28;20485;-80
2023/05/19 07:49:38;;;;;;;1.50;0.90;;;19.70;75.10;;;;;;5051293;28;20556;-79
2023/05/19 07:52:06;;;;;;;1.50;1.00;;;19.70;74.20;;;;;;5038249;28;21056;-79
2023/05/19 07:54:33;;;;;;;1.50;0.90;;;19.60;74.70;;;;;;5048715;28;20553;-79
2023/05/19 07:57:00;;;;;;;1.47;0.90;;;19.50;74.40;;;;;;5051236;28;20481;-78
2023/05/19 07:59:27;;;;;;;1.47;0.90;;;19.60;74.90;;;;;;5048504;28;20500;-80
2023/05/19 08:04:47;;;;;;;1.47;0.90;;;20.10;73.60;;;;;;5049098;28;20462;-86
2023/05/19 08:07:14;;;;;;;1.47;0.90;;;20.40;72.90;;;;;;5052672;28;20512;-81
2023/05/19 08:09:41;;;;;;;1.50;0.90;;;20.60;73.60;;;;;;5051525;28;20463;-81
2023/05/19 08:12:08;;;;;;;1.50;0.90;;;20.70;72.00;;;;;;5042772;28;20900;-80
2023/05/19 08:14:35;;;;;;;1.50;0.90;;;20.80;72.10;;;;;;5049011;28;20543;-81
2023/05/19 08:17:03;;;;;;;1.47;1.07;;;21.00;73.50;;;;;;5053095;28;20889;-80
2023/05/19 08:19:30;;;;;;;1.47;0.90;;;21.20;72.70;;;;;;5051454;28;20556;-80
2023/05/19 08:22:02;;;;;;;1.47;0.90;;;21.30;71.60;;;;;;5053544;28;20643;-80
2023/05/19 08:24:29;;;;;;;1.50;0.90;;;21.30;72.70;;;;;;5048850;28;20891;-80
2023/05/19 08:26:56;;;;;;;1.47;0.90;;;21.50;71.90;;;;;;5059546;28;20485;-81
2023/05/19 08:29:23;;;;;;;1.47;0.90;;;21.70;71.60;;;;;;5060596;28;20466;-80
2023/05/19 08:31:51;;;;;;;1.50;0.90;;;21.70;69.90;;;;;;5056802;28;20584;-81
2023/05/19 08:34:21;;;;;;;1.47;0.83;;;21.80;69.90;;;;;;5054932;28;20586;-80
2023/05/19 08:39:17;;;;;;;1.43;0.90;;;21.90;69.80;;;;;;5051907;22;20493;-81
2023/05/19 08:41:57;;;;;;;1.50;0.90;;;22.10;69.80;;;;;;5033273;28;21016;-83
2023/05/19 08:47:23;;;;;;;1.43;0.90;;;22.50;69.40;;;;;;5039263;28;20519;-79
2023/05/19 08:49:59;;;;;;;1.47;0.90;;;22.80;68.50;;;;;;5060683;28;20477;-80
2023/05/19 08:52:44;;;;;;;1.50;1.00;;;23.00;68.30;;;;;;5052660;28;20981;-79
2023/05/19 08:55:26;;;;;;;1.40;0.80;;;23.20;68.70;;;;;;5052094;28;20446;-80
2023/05/19 08:57:56;;;;;;;1.47;0.90;;;23.30;68.00;;;;;;5053604;28;20492;-80
2023/05/19 09:00:24;;;;;;;1.47;0.80;;;23.40;67.70;;;;;;5051434;28;20457;-80
2023/05/19 09:02:59;;;;;;;1.47;0.80;;;23.40;67.60;;;;;;5053631;28;20505;-79
2023/05/19 09:12:13;;;;;;;1.43;0.80;;;23.80;66.00;;;;;;5049350;28;20494;-81
2023/05/19 09:14:41;;;;;;;1.47;0.80;;;23.70;66.50;;;;;;5054224;28;21652;-80
2023/05/19 09:17:08;;;;;;;1.47;0.80;;;23.90;66.90;;;;;;5049361;28;20482;-79
2023/05/19 09:19:35;;;;;;;1.40;0.83;;;24.00;66.40;;;;;;5045847;28;20520;-81
2023/05/19 09:22:35;;;;;;;1.43;0.90;;;24.10;66.90;;;;;;5057764;28;20462;-81
2023/05/19 09:25:04;;;;;;;1.47;0.80;;;24.30;67.40;;;;;;5048472;28;20555;-79
2023/05/19 09:27:34;;;;;;;1.47;0.90;;;24.20;64.60;;;;;;5047826;28;20485;-81
2023/05/19 09:30:09;;;;;;;1.40;0.80;;;24.10;65.20;;;;;;5048368;28;20458;-79
2023/05/19 09:32:36;;;;;;;1.40;0.90;;;24.40;66.00;;;;;;5054020;28;20461;-80
2023/05/19 09:35:44;;;;;;;1.50;1.10;;;24.60;63.80;;;;;;5053327;28;20722;-81
2023/05/19 09:38:18;;;;;;;1.50;0.80;;;24.60;64.40;;;;;;5053814;28;20900;-80
2023/05/19 09:40:45;;;;;;;1.47;0.80;;;24.70;65.50;;;;;;5053944;28;20461;-81
2023/05/19 09:43:15;;;;;;;1.43;0.80;;;24.90;65.60;;;;;;5050339;28;20968;-82
2023/05/19 09:45:42;;;;;;;1.50;0.80;;;25.10;62.50;;;;;;5057722;28;20527;-80
2023/05/19 09:48:10;;;;;;;1.50;1.00;;;25.00;63.10;;;;;;5053135;28;20960;-80
2023/05/19 09:50:37;;;;;;;1.43;0.80;;;25.10;62.50;;;;;;5052415;28;20529;-79
2023/05/19 09:53:05;;;;;;;1.50;1.20;;;25.20;61.80;;;;;;5049207;28;20734;-82
2023/05/19 09:55:33;;;;;;;1.47;0.80;;;25.20;62.90;;;;;;5054434;28;20461;-82
2023/05/19 09:58:03;;;;;;;1.43;0.90;;;25.30;62.90;;;;;;5056807;28;20474;-79
2023/05/19 10:01:01;;;;;;;1.40;0.80;;;25.10;62.00;;;;;;5058244;28;20461;-80
2023/05/19 10:03:30;;;;;;;1.43;0.83;;;24.60;62.20;;;;;;5046787;28;20572;-82
2023/05/19 10:06:01;;;;;;;1.47;0.80;;;23.90;62.20;;;;;;5056397;28;20473;-80
2023/05/19 10:08:29;;;;;;;1.60;1.17;;;23.70;64.20;;;;;;5048291;28;20488;-83
2023/05/19 10:10:58;;;;;;;1.40;0.90;;;23.70;63.10;;;;;;5046232;28;20461;-83
2023/05/19 10:13:27;;;;;;;1.40;0.80;;;23.70;63.00;;;;;;5047328;28;20979;-80
2023/05/19 10:15:58;;;;;;;1.47;0.90;;;23.60;62.80;;;;;;5053814;28;20523;-79
2023/05/19 10:18:26;;;;;;;1.43;0.80;;;23.70;63.00;;;;;;5051765;28;20661;-79
2023/05/19 10:20:59;;;;;;;1.47;0.80;;;23.80;63.50;;;;;;5051209;28;20465;-84
2023/05/19 10:23:27;;;;;;;1.40;0.80;;;24.10;62.20;;;;;;5051697;28;20560;-80
2023/05/19 10:25:58;;;;;;;1.40;0.80;;;24.10;61.30;;;;;;5047169;28;20511;-80
2023/05/19 10:28:30;;;;;;;1.43;0.80;;;23.80;61.20;;;;;;5040942;28;20481;-82
2023/05/19 10:31:01;;;;;;;1.43;0.80;;;23.50;62.70;;;;;;5052343;28;20457;-79
2023/05/19 10:33:40;;;;;;;1.47;0.80;;;23.30;63.80;;;;;;5056729;28;20461;-80
2023/05/19 10:36:25;;;;;;;1.60;1.40;;;23.30;62.70;;;;;;5051530;28;20461;-80
2023/05/19 10:39:00;;;;;;;1.47;0.90;;;23.10;63.10;;;;;;5051671;28;20485;-80
2023/05/19 10:41:34;;;;;;;1.47;0.80;;;23.20;64.40;;;;;;5048470;28;20897;-82
2023/05/19 10:44:09;;;;;;;1.40;0.80;;;23.30;64.60;;;;;;5055231;28;20465;-80
2023/05/19 10:46:41;;;;;;;1.40;0.90;;;23.30;63.30;;;;;;5054840;28;20566;-80
2023/05/19 10:49:09;;;;;;;1.43;0.90;;;23.60;64.00;;;;;;5051683;28;20654;-79
2023/05/19 10:51:37;;;;;;;1.40;0.80;;;23.80;62.20;;;;;;5047601;28;20457;-80
2023/05/19 10:54:11;;;;;;;1.40;0.90;;;24.10;61.10;;;;;;5043715;28;20535;-81
2023/05/19 10:56:46;;;;;;;1.43;0.80;;;24.10;61.50;;;;;;5042777;28;20902;-79
2023/05/19 10:59:38;;;;;;;1.43;0.90;;;24.30;61.00;;;;;;5048361;28;20464;-79
2023/05/19 11:02:42;;;;;;;1.47;0.80;;;24.60;62.60;;;;;;5054305;28;20449;-84
2023/05/19 11:05:15;;;;;;;1.40;0.80;;;25.20;63.80;;;;;;5054193;28;20524;-80
2023/05/19 11:07:44;;;;;;;1.43;0.80;;;25.50;61.20;;;;;;5050207;28;20503;-80
2023/05/19 11:10:12;;;;;;;1.50;0.80;;;25.50;61.50;;;;;;5050098;28;20465;-78
2023/05/19 11:12:45;;;;;;;1.43;0.90;;;25.40;62.20;;;;;;5053657;28;20476;-82
2023/05/19 11:15:14;;;;;;;1.40;0.90;;;25.20;63.30;;;;;;5053710;28;20464;-81
2023/05/19 11:17:42;;;;;;;1.47;0.80;;;25.10;63.20;;;;;;5057727;28;20504;-82
2023/05/19 11:23:27;;;;;;;1.47;0.80;;;25.50;62.70;;;;;;5048852;28;20457;-81
2023/05/19 11:25:54;;;;;;;1.50;0.90;;;25.80;61.00;;;;;;5048325;28;20465;-82
2023/05/19 11:28:25;;;;;;;1.47;0.80;;;25.70;60.80;;;;;;5049766;28;20487;-82
2023/05/19 11:30:56;;;;;;;1.47;0.80;;;25.30;59.90;;;;;;5053747;28;20495;-79
2023/05/19 11:33:26;;;;;;;1.43;0.90;;;25.30;61.10;;;;;;5049654;28;21036;-82
2023/05/19 11:35:57;;;;;;;1.43;0.83;;;25.10;61.00;;;;;;5053772;28;20526;-80
2023/05/19 11:38:26;;;;;;;1.40;0.90;;;25.20;63.20;;;;;;5054019;28;20523;-80
2023/05/19 11:40:57;;;;;;;1.40;0.80;;;25.60;63.50;;;;;;5057586;28;20496;-81
2023/05/19 11:43:25;;;;;;;1.50;0.83;;;25.80;63.30;;;;;;5053235;28;20856;-77
2023/05/19 11:45:54;;;;;;;1.50;1.00;;;26.00;63.30;;;;;;5054006;28;20642;-79
2023/05/19 11:48:22;;;;;;;1.43;0.90;;;26.10;59.60;;;;;;5052026;28;20517;-78
2023/05/19 11:50:51;;;;;;;1.43;0.80;;;26.10;60.60;;;;;;5047897;28;20491;-80
2023/05/19 11:53:19;;;;;;;1.50;0.90;;;26.30;59.20;;;;;;5050641;28;20519;-83
2023/05/19 11:55:49;;;;;;;1.50;0.80;;;26.50;60.10;;;;;;5053623;28;20453;-82
2023/05/19 11:58:27;;;;;;;1.47;0.80;;;26.70;61.40;;;;;;5056629;28;20482;-83
2023/05/19 12:00:55;;;;;;;1.50;0.90;;;26.90;59.70;;;;;;5050619;28;20510;-79
2023/05/19 12:03:26;;;;;;;1.47;0.80;;;26.90;59.30;;;;;;5048302;28;20518;-80
2023/05/19 12:05:57;;;;;;;1.43;0.80;;;26.90;61.50;;;;;;5047310;28;20465;-81
2023/05/19 12:11:08;;;;;;;1.47;0.80;;;26.90;61.00;;;;;;5042518;28;20460;-83
2023/05/19 12:13:36;;;;;;;1.40;0.80;;;26.90;58.50;;;;;;5052381;28;20555;-80
2023/05/19 12:16:05;;;;;;;1.63;1.20;;;26.90;59.30;;;;;;5050978;28;20798;-81
2023/05/19 12:18:37;;;;;;;1.43;0.80;;;27.10;57.20;;;;;;5053271;28;20495;-82
2023/05/19 12:21:06;;;;;;;1.87;1.17;;;27.00;58.20;;;;;;5045994;28;20470;-81
2023/05/19 12:24:19;;;;;;;1.47;0.90;;;26.90;60.30;;;;;;5054771;28;20465;-81
2023/05/19 12:26:49;;;;;;;1.40;0.80;;;26.90;58.70;;;;;;5053172;28;20762;-80
2023/05/19 12:29:16;;;;;;;1.43;0.87;;;26.70;61.00;;;;;;5057652;28;20457;-80
2023/05/19 12:31:48;;;;;;;1.43;0.80;;;26.60;60.60;;;;;;5055242;28;20493;-82
2023/05/19 12:34:16;;;;;;;1.50;0.80;;;26.50;60.40;;;;;;5064873;28;20552;-79
2023/05/19 12:36:43;;;;;;;1.40;0.80;;;26.50;60.10;;;;;;5054370;28;20528;-80
2023/05/19 12:39:10;;;;;;;1.43;0.83;;;26.60;60.60;;;;;;5056191;28;20485;-81
2023/05/19 12:41:37;;;;;;;1.47;0.80;;;26.70;59.40;;;;;;5062803;28;20477;-83
2023/05/19 12:44:15;;;;;;;1.47;0.80;;;26.80;59.90;;;;;;5056991;28;20964;-80
2023/05/19 12:46:54;;;;;;;1.40;0.80;;;26.70;60.30;;;;;;5060906;28;20701;-83
2023/05/19 12:49:21;;;;;;;1.43;0.80;;;26.60;59.90;;;;;;5056892;28;20464;-83
2023/05/19 12:51:52;;;;;;;1.47;0.80;;;26.50;59.50;;;;;;5056908;28;20454;-82
2023/05/19 12:54:20;;;;;;;1.43;0.80;;;26.30;60.80;;;;;;5057493;28;20469;-81
2023/05/19 12:56:52;;;;;;;1.47;0.80;;;26.40;61.40;;;;;;5058759;28;20538;-79
2023/05/19 12:59:25;;;;;;;1.40;0.80;;;26.50;60.60;;;;;;5059714;28;20483;-81
2023/05/19 13:01:56;;;;;;;1.43;0.80;;;26.70;60.00;;;;;;5058808;28;20537;-82
2023/05/19 13:04:24;;;;;;;1.40;0.80;;;26.80;60.90;;;;;;5058305;28;20500;-80
2023/05/19 13:06:52;;;;;;;1.43;0.80;;;26.90;60.80;;;;;;5053290;28;20466;-82
2023/05/19 13:09:20;;;;;;;1.47;0.80;;;27.00;61.00;;;;;;5065302;28;20478;-80
2023/05/19 13:11:50;;;;;;;1.40;0.80;;;26.70;58.40;;;;;;5071911;28;20529;-84
2023/05/19 13:14:18;;;;;;;1.47;0.80;;;26.50;60.50;;;;;;5055053;28;21015;-78
2023/05/19 13:16:47;;;;;;;1.47;0.80;;;26.40;60.30;;;;;;5052103;28;20945;-79
2023/05/19 13:19:17;;;;;;;1.43;0.80;;;26.40;61.20;;;;;;5054857;28;20453;-81
2023/05/19 13:24:41;;;;;;;1.43;0.80;;;26.80;61.80;;;;;;5049066;22;20486;-81
2023/05/19 13:27:08;;;;;;;1.50;1.00;;;27.10;60.50;;;;;;5024978;28;20672;-80